sensor_id;sensor_type;location;lat;lon;timestamp;pressure;altitude;pressure_sealevel;temperature;humidity
42761;BME280;31672;47.638;19.026;2024-01-10T00:03:40;101795.75;;;-7.57;93.52
42761;BME280;31672;47.638;19.026;2024-01-10T00:08:43;101806.09;;;-7.56;94.52
42761;BME280;31672;47.638;19.026;2024-01-10T00:13:47;101794.09;;;-7.64;95.07
42761;BME280;31672;47.638;19.026;2024-01-10T00:18:50;101809.59;;;-7.61;95.99
42761;BME280;31672;47.638;19.026;2024-01-10T00:23:54;101803.59;;;-7.66;96.65
42761;BME280;31672;47.638;19.026;2024-01-10T00:28:57;101809.66;;;-7.70;97.21
42761;BME280;31672;47.638;19.026;2024-01-10T00:34:07;101809.69;;;-7.76;97.28
42761;BME280;31672;47.638;19.026;2024-01-10T00:39:11;101812.34;;;-7.84;97.56
42761;BME280;31672;47.638;19.026;2024-01-10T00:44:14;101819.22;;;-7.86;98.14
42761;BME280;31672;47.638;19.026;2024-01-10T00:49:18;101822.72;;;-7.92;98.62
42761;BME280;31672;47.638;19.026;2024-01-10T00:54:21;101822.75;;;-7.98;98.85
42761;BME280;31672;47.638;19.026;2024-01-10T00:59:25;101834.00;;;-8.02;99.47
42761;BME280;31672;47.638;19.026;2024-01-10T01:04:28;101823.69;;;-8.06;99.84
42761;BME280;31672;47.638;19.026;2024-01-10T01:09:31;101828.88;;;-8.11;100.00
42761;BME280;31672;47.638;19.026;2024-01-10T01:14:38;101823.75;;;-8.14;100.00
42761;BME280;31672;47.638;19.026;2024-01-10T01:19:41;101827.19;;;-8.17;100.00
42761;BME280;31672;47.638;19.026;2024-01-10T01:24:45;101827.19;;;-8.18;100.00
42761;BME280;31672;47.638;19.026;2024-01-10T01:29:50;101825.50;;;-8.19;100.00
42761;BME280;31672;47.638;19.026;2024-01-10T01:35:02;101817.78;;;-8.24;100.00
42761;BME280;31672;47.638;19.026;2024-01-10T01:40:18;101830.69;;;-8.25;100.00
42761;BME280;31672;47.638;19.026;2024-01-10T01:45:23;101810.94;;;-8.29;100.00
42761;BME280;31672;47.638;19.026;2024-01-10T01:50:28;101812.69;;;-8.31;100.00
42761;BME280;31672;47.638;19.026;2024-01-10T01:55:36;101825.56;;;-8.35;100.00
42761;BME280;31672;47.638;19.026;2024-01-10T02:00:42;101820.50;;;-8.39;100.00
42761;BME280;31672;47.638;19.026;2024-01-10T02:05:47;101820.47;;;-8.41;100.00
42761;BME280;31672;47.638;19.026;2024-01-10T02:10:56;101811.91;;;-8.43;100.00
42761;BME280;31672;47.638;19.026;2024-01-10T02:16:00;101823.06;;;-8.42;100.00
42761;BME280;31672;47.638;19.026;2024-01-10T02:21:07;101821.38;;;-8.43;100.00
42761;BME280;31672;47.638;19.026;2024-01-10T02:26:12;101807.66;;;-8.50;100.00
42761;BME280;31672;47.638;19.026;2024-01-10T02:31:15;101818.84;;;-8.51;100.00
42761;BME280;31672;47.638;19.026;2024-01-10T02:36:19;101818.81;;;-8.48;100.00
42761;BME280;31672;47.638;19.026;2024-01-10T02:41:23;101820.50;;;-8.44;100.00
42761;BME280;31672;47.638;19.026;2024-01-10T02:46:39;101819.66;;;-8.43;100.00
42761;BME280;31672;47.638;19.026;2024-01-10T02:51:46;101817.06;;;-8.46;100.00
42761;BME280;31672;47.638;19.026;2024-01-10T02:56:50;101811.94;;;-8.49;100.00
42761;BME280;31672;47.638;19.026;2024-01-10T03:01:57;101808.53;;;-8.54;100.00
42761;BME280;31672;47.638;19.026;2024-01-10T03:07:02;101815.38;;;-8.53;100.00
42761;BME280;31672;47.638;19.026;2024-01-10T03:12:05;101812.84;;;-8.51;100.00
42761;BME280;31672;47.638;19.026;2024-01-10T03:17:13;101814.56;;;-8.56;100.00
42761;BME280;31672;47.638;19.026;2024-01-10T03:22:17;101816.28;;;-8.60;100.00
42761;BME280;31672;47.638;19.026;2024-01-10T03:27:22;101804.31;;;-8.67;100.00
42761;BME280;31672;47.638;19.026;2024-01-10T03:32:26;101804.31;;;-8.70;100.00
42761;BME280;31672;47.638;19.026;2024-01-10T03:37:30;101800.03;;;-8.76;100.00
42761;BME280;31672;47.638;19.026;2024-01-10T03:42:34;101795.78;;;-8.80;100.00
42761;BME280;31672;47.638;19.026;2024-01-10T03:47:37;101802.63;;;-8.79;100.00
42761;BME280;31672;47.638;19.026;2024-01-10T03:52:41;101797.50;;;-8.83;100.00
42761;BME280;31672;47.638;19.026;2024-01-10T03:57:44;101800.06;;;-8.83;100.00
42761;BME280;31672;47.638;19.026;2024-01-10T04:02:48;101797.47;;;-8.79;100.00
42761;BME280;31672;47.638;19.026;2024-01-10T04:07:55;101792.34;;;-8.80;100.00
42761;BME280;31672;47.638;19.026;2024-01-10T04:13:01;101801.78;;;-8.75;100.00
42761;BME280;31672;47.638;19.026;2024-01-10T04:18:04;101803.50;;;-8.78;100.00
42761;BME280;31672;47.638;19.026;2024-01-10T04:23:08;101801.78;;;-8.84;100.00
42761;BME280;31672;47.638;19.026;2024-01-10T04:28:12;101796.69;;;-8.92;100.00
42761;BME280;31672;47.638;19.026;2024-01-10T04:33:16;101810.44;;;-8.93;100.00
42761;BME280;31672;47.638;19.026;2024-01-10T04:38:19;101812.16;;;-8.98;100.00
42761;BME280;31672;47.638;19.026;2024-01-10T04:43:23;101822.47;;;-9.04;100.00
42761;BME280;31672;47.638;19.026;2024-01-10T04:48:26;101829.34;;;-9.06;100.00
42761;BME280;31672;47.638;19.026;2024-01-10T04:53:30;101827.63;;;-9.13;100.00
42761;BME280;31672;47.638;19.026;2024-01-10T04:58:34;101827.66;;;-9.16;100.00
42761;BME280;31672;47.638;19.026;2024-01-10T05:03:38;101841.38;;;-9.19;100.00
42761;BME280;31672;47.638;19.026;2024-01-10T05:08:42;101838.84;;;-9.23;100.00
42761;BME280;31672;47.638;19.026;2024-01-10T05:13:46;101838.84;;;-9.23;100.00
42761;BME280;31672;47.638;19.026;2024-01-10T05:18:50;101838.84;;;-9.26;100.00
42761;BME280;31672;47.638;19.026;2024-01-10T05:23:53;101843.13;;;-9.25;100.00
42761;BME280;31672;47.638;19.026;2024-01-10T05:28:57;101843.13;;;-9.28;100.00
42761;BME280;31672;47.638;19.026;2024-01-10T05:34:00;101837.13;;;-9.30;100.00
42761;BME280;31672;47.638;19.026;2024-01-10T05:39:04;101835.41;;;-9.33;100.00
42761;BME280;31672;47.638;19.026;2024-01-10T05:44:07;101828.56;;;-9.35;100.00
42761;BME280;31672;47.638;19.026;2024-01-10T05:49:11;101838.00;;;-9.34;100.00
42761;BME280;31672;47.638;19.026;2024-01-10T05:54:14;101836.28;;;-9.38;100.00
42761;BME280;31672;47.638;19.026;2024-01-10T05:59:18;101826.84;;;-9.44;100.00
42761;BME280;31672;47.638;19.026;2024-01-10T06:04:22;101827.72;;;-9.47;100.00
42761;BME280;31672;47.638;19.026;2024-01-10T06:09:26;101825.16;;;-9.51;100.00
42761;BME280;31672;47.638;19.026;2024-01-10T06:14:30;101834.59;;;-9.52;100.00
42761;BME280;31672;47.638;19.026;2024-01-10T06:19:34;101843.16;;;-9.50;100.00
42761;BME280;31672;47.638;19.026;2024-01-10T06:24:39;101841.44;;;-9.51;100.00
42761;BME280;31672;47.638;19.026;2024-01-10T06:29:44;101838.88;;;-9.51;100.00
42761;BME280;31672;47.638;19.026;2024-01-10T06:34:48;101850.03;;;-9.46;100.00
42761;BME280;31672;47.638;19.026;2024-01-10T06:39:51;101855.16;;;-9.39;100.00
42761;BME280;31672;47.638;19.026;2024-01-10T06:44:55;101860.31;;;-9.38;100.00
42761;BME280;31672;47.638;19.026;2024-01-10T06:49:59;101857.72;;;-9.30;100.00
42761;BME280;31672;47.638;19.026;2024-01-10T06:55:04;101856.81;;;-9.06;100.00
42761;BME280;31672;47.638;19.026;2024-01-10T07:00:08;101859.25;;;-8.59;100.00
42761;BME280;31672;47.638;19.026;2024-01-10T07:05:14;101864.16;;;-8.13;100.00
42761;BME280;31672;47.638;19.026;2024-01-10T07:10:18;101856.16;;;-7.76;100.00
42761;BME280;31672;47.638;19.026;2024-01-10T07:15:22;101850.63;;;-7.32;100.00
42761;BME280;31672;47.638;19.026;2024-01-10T07:20:26;101844.09;;;-6.82;100.00
42761;BME280;31672;47.638;19.026;2024-01-10T07:25:29;101846.00;;;-6.30;100.00
42761;BME280;31672;47.638;19.026;2024-01-10T07:30:33;101844.31;;;-5.74;100.00
42761;BME280;31672;47.638;19.026;2024-01-10T07:35:37;101851.41;;;-5.33;100.00
42761;BME280;31672;47.638;19.026;2024-01-10T07:40:42;101847.84;;;-4.81;100.00
42761;BME280;31672;47.638;19.026;2024-01-10T07:45:45;101849.50;;;-4.35;100.00
42761;BME280;31672;47.638;19.026;2024-01-10T07:50:49;101856.44;;;-3.97;100.00
42761;BME280;31672;47.638;19.026;2024-01-10T07:55:55;101851.22;;;-3.58;100.00
42761;BME280;31672;47.638;19.026;2024-01-10T08:01:03;101859.41;;;-3.05;100.00
42761;BME280;31672;47.638;19.026;2024-01-10T08:06:08;101850.88;;;-2.79;98.72
42761;BME280;31672;47.638;19.026;2024-01-10T08:11:26;101861.69;;;-2.32;95.73
42761;BME280;31672;47.638;19.026;2024-01-10T08:16:30;101860.28;;;-1.86;91.57
42761;BME280;31672;47.638;19.026;2024-01-10T08:21:37;101865.72;;;-1.40;88.00
42761;BME280;31672;47.638;19.026;2024-01-10T08:26:42;101864.25;;;-0.97;83.77
42761;BME280;31672;47.638;19.026;2024-01-10T08:31:47;101873.06;;;-0.51;80.93
42761;BME280;31672;47.638;19.026;2024-01-10T08:36:51;101870.53;;;-0.29;75.78
42761;BME280;31672;47.638;19.026;2024-01-10T08:41:55;101871.47;;;-0.08;72.79
42761;BME280;31672;47.638;19.026;2024-01-10T08:46:59;101867.69;;;-0.01;70.93
42761;BME280;31672;47.638;19.026;2024-01-10T08:52:03;101877.91;;;0.05;67.91
42761;BME280;31672;47.638;19.026;2024-01-10T08:57:08;101863.78;;;-0.13;63.43
42761;BME280;31672;47.638;19.026;2024-01-10T09:02:11;101874.22;;;-0.11;63.52
42761;BME280;31672;47.638;19.026;2024-01-10T09:07:15;101875.84;;;-0.56;63.66
42761;BME280;31672;47.638;19.026;2024-01-10T09:12:19;101864.06;;;-1.16;63.85
42761;BME280;31672;47.638;19.026;2024-01-10T09:17:22;101860.66;;;-1.71;64.67
42761;BME280;31672;47.638;19.026;2024-01-10T09:22:26;101861.44;;;-1.67;67.39
42761;BME280;31672;47.638;19.026;2024-01-10T09:27:34;101856.06;;;-0.86;68.83
42761;BME280;31672;47.638;19.026;2024-01-10T09:32:38;101840.91;;;0.16;67.59
42761;BME280;31672;47.638;19.026;2024-01-10T09:37:43;101839.91;;;1.03;63.20
42761;BME280;31672;47.638;19.026;2024-01-10T09:42:51;101822.06;;;1.50;58.38
42761;BME280;31672;47.638;19.026;2024-01-10T09:47:56;101813.06;;;1.94;55.95
42761;BME280;31672;47.638;19.026;2024-01-10T09:53:07;101811.66;;;2.04;56.70
42761;BME280;31672;47.638;19.026;2024-01-10T09:58:11;101808.31;;;1.64;56.46
42761;BME280;31672;47.638;19.026;2024-01-10T10:03:17;101808.59;;;1.00;55.55
42761;BME280;31672;47.638;19.026;2024-01-10T10:08:21;101800.56;;;0.43;56.72
42761;BME280;31672;47.638;19.026;2024-01-10T10:13:29;101799.81;;;-0.03;58.04
42761;BME280;31672;47.638;19.026;2024-01-10T10:18:33;101795.66;;;-0.30;59.17
42761;BME280;31672;47.638;19.026;2024-01-10T10:23:39;101785.28;;;-0.53;59.78
42761;BME280;31672;47.638;19.026;2024-01-10T10:28:43;101793.59;;;-0.67;61.10
42761;BME280;31672;47.638;19.026;2024-01-10T10:33:49;101778.38;;;-0.79;61.95
42761;BME280;31672;47.638;19.026;2024-01-10T10:38:56;101785.44;;;-0.82;61.43
42761;BME280;31672;47.638;19.026;2024-01-10T10:44:03;101772.44;;;-0.83;62.84
42761;BME280;31672;47.638;19.026;2024-01-10T10:49:11;101769.00;;;-0.84;63.67
42761;BME280;31672;47.638;19.026;2024-01-10T10:54:17;101770.28;;;-0.72;65.02
42761;BME280;31672;47.638;19.026;2024-01-10T10:59:23;101757.81;;;0.02;64.33
42761;BME280;31672;47.638;19.026;2024-01-10T11:04:29;101745.03;;;0.77;62.21
42761;BME280;31672;47.638;19.026;2024-01-10T11:09:34;101743.34;;;0.95;60.05
42761;BME280;31672;47.638;19.026;2024-01-10T11:25:41;101725.91;;;1.15;58.15
42761;BME280;31672;47.638;19.026;2024-01-10T11:30:51;101718.31;;;0.90;58.23
42761;BME280;31672;47.638;19.026;2024-01-10T11:36:26;101717.31;;;0.73;58.15
42761;BME280;31672;47.638;19.026;2024-01-10T11:41:35;101710.03;;;0.60;57.98
42761;BME280;31672;47.638;19.026;2024-01-10T11:46:40;101702.81;;;0.46;59.36
42761;BME280;31672;47.638;19.026;2024-01-10T11:51:49;101703.16;;;0.38;59.18
42761;BME280;31672;47.638;19.026;2024-01-10T11:56:54;101702.41;;;0.35;59.81
42761;BME280;31672;47.638;19.026;2024-01-10T12:01:59;101689.56;;;0.30;59.01
42761;BME280;31672;47.638;19.026;2024-01-10T12:07:03;101686.81;;;0.33;59.87
42761;BME280;31672;47.638;19.026;2024-01-10T12:12:08;101687.47;;;0.38;59.71
42761;BME280;31672;47.638;19.026;2024-01-10T12:17:14;101672.72;;;0.36;59.74
42761;BME280;31672;47.638;19.026;2024-01-10T12:22:18;101680.38;;;0.40;57.16
42761;BME280;31672;47.638;19.026;2024-01-10T12:27:22;101680.38;;;0.40;58.35
42761;BME280;31672;47.638;19.026;2024-01-10T12:32:27;101673.25;;;0.44;58.81
42761;BME280;31672;47.638;19.026;2024-01-10T12:37:32;101676.81;;;0.43;58.95
42761;BME280;31672;47.638;19.026;2024-01-10T12:42:36;101674.81;;;0.48;58.25
42761;BME280;31672;47.638;19.026;2024-01-10T12:47:39;101679.91;;;0.51;57.70
42761;BME280;31672;47.638;19.026;2024-01-10T12:52:43;101674.63;;;0.52;57.32
42761;BME280;31672;47.638;19.026;2024-01-10T12:57:47;101671.16;;;0.52;57.56
42761;BME280;31672;47.638;19.026;2024-01-10T13:02:51;101669.53;;;0.49;57.70
42761;BME280;31672;47.638;19.026;2024-01-10T13:07:54;101667.03;;;0.46;57.98
42761;BME280;31672;47.638;19.026;2024-01-10T13:12:58;101663.78;;;0.41;58.13
42761;BME280;31672;47.638;19.026;2024-01-10T13:18:02;101662.06;;;0.40;58.57
42761;BME280;31672;47.638;19.026;2024-01-10T13:23:07;101658.75;;;0.37;58.57
42761;BME280;31672;47.638;19.026;2024-01-10T13:28:11;101650.38;;;0.29;57.80
42761;BME280;31672;47.638;19.026;2024-01-10T13:33:18;101654.69;;;0.30;58.18
42761;BME280;31672;47.638;19.026;2024-01-10T13:38:23;101654.06;;;0.24;57.86
42761;BME280;31672;47.638;19.026;2024-01-10T13:43:27;101650.84;;;0.18;57.83
42761;BME280;31672;47.638;19.026;2024-01-10T13:48:31;101649.28;;;0.14;58.63
42761;BME280;31672;47.638;19.026;2024-01-10T13:53:35;101651.31;;;0.07;58.87
42761;BME280;31672;47.638;19.026;2024-01-10T13:58:39;101644.72;;;-0.02;59.46
42761;BME280;31672;47.638;19.026;2024-01-10T14:03:43;101647.47;;;-0.05;59.81
42761;BME280;31672;47.638;19.026;2024-01-10T14:08:47;101652.97;;;-0.12;59.59
42761;BME280;31672;47.638;19.026;2024-01-10T14:13:52;101641.25;;;-0.22;59.59
42761;BME280;31672;47.638;19.026;2024-01-10T14:18:57;101636.53;;;-0.35;61.15
42761;BME280;31672;47.638;19.026;2024-01-10T14:24:01;101637.19;;;-0.51;61.62
42761;BME280;31672;47.638;19.026;2024-01-10T14:29:05;101640.38;;;-0.65;62.83
42761;BME280;31672;47.638;19.026;2024-01-10T14:34:08;101633.38;;;-0.87;63.61
42761;BME280;31672;47.638;19.026;2024-01-10T14:39:13;101641.22;;;-1.10;64.28
42761;BME280;31672;47.638;19.026;2024-01-10T14:44:18;101642.00;;;-1.30;65.91
42761;BME280;31672;47.638;19.026;2024-01-10T14:49:22;101636.47;;;-1.46;65.83
42761;BME280;31672;47.638;19.026;2024-01-10T14:54:26;101648.25;;;-1.59;66.07
42761;BME280;31672;47.638;19.026;2024-01-10T14:59:29;101648.75;;;-1.73;66.61
42761;BME280;31672;47.638;19.026;2024-01-10T15:04:47;101642.25;;;-1.86;68.63
42761;BME280;31672;47.638;19.026;2024-01-10T15:09:50;101650.66;;;-2.03;68.34
42761;BME280;31672;47.638;19.026;2024-01-10T15:14:54;101653.72;;;-2.17;69.33
42761;BME280;31672;47.638;19.026;2024-01-10T15:19:57;101656.69;;;-2.27;68.67
42761;BME280;31672;47.638;19.026;2024-01-10T15:25:03;101651.84;;;-2.38;70.04
42761;BME280;31672;47.638;19.026;2024-01-10T15:30:07;101653.97;;;-2.51;71.38
42761;BME280;31672;47.638;19.026;2024-01-10T15:35:19;101657.00;;;-2.64;73.15
42761;BME280;31672;47.638;19.026;2024-01-10T15:40:23;101660.03;;;-2.78;74.58
42761;BME280;31672;47.638;19.026;2024-01-10T15:45:26;101660.47;;;-2.92;75.48
42761;BME280;31672;47.638;19.026;2024-01-10T15:50:29;101652.19;;;-3.05;74.93
42761;BME280;31672;47.638;19.026;2024-01-10T15:55:33;101662.84;;;-3.14;75.57
42761;BME280;31672;47.638;19.026;2024-01-10T16:00:38;101641.47;;;-3.24;74.00
42761;BME280;31672;47.638;19.026;2024-01-10T16:05:44;101645.78;;;-3.24;73.77
42761;BME280;31672;47.638;19.026;2024-01-10T16:10:48;101647.59;;;-3.26;74.55
42761;BME280;31672;47.638;19.026;2024-01-10T16:15:55;101648.75;;;-3.36;76.04
42761;BME280;31672;47.638;19.026;2024-01-10T16:20:58;101652.72;;;-3.54;76.86
42761;BME280;31672;47.638;19.026;2024-01-10T16:26:02;101659.28;;;-3.72;78.27
42761;BME280;31672;47.638;19.026;2024-01-10T16:31:05;101648.34;;;-3.83;79.68
42761;BME280;31672;47.638;19.026;2024-01-10T16:36:09;101653.56;;;-3.85;80.70
42761;BME280;31672;47.638;19.026;2024-01-10T16:41:12;101658.00;;;-3.88;81.67
42761;BME280;31672;47.638;19.026;2024-01-10T16:46:17;101658.31;;;-4.00;82.21
42761;BME280;31672;47.638;19.026;2024-01-10T16:51:20;101656.16;;;-4.17;83.07
42761;BME280;31672;47.638;19.026;2024-01-10T16:56:23;101659.91;;;-4.29;84.25
42761;BME280;31672;47.638;19.026;2024-01-10T17:01:27;101669.63;;;-4.37;85.24
42761;BME280;31672;47.638;19.026;2024-01-10T17:06:32;101672.22;;;-4.39;86.32
42761;BME280;31672;47.638;19.026;2024-01-10T17:11:39;101655.91;;;-4.42;87.33
42761;BME280;31672;47.638;19.026;2024-01-10T17:16:43;101669.03;;;-4.48;87.45
42761;BME280;31672;47.638;19.026;2024-01-10T17:21:48;101672.66;;;-4.57;88.05
42761;BME280;31672;47.638;19.026;2024-01-10T17:26:51;101666.72;;;-4.62;89.09
42761;BME280;31672;47.638;19.026;2024-01-10T17:31:55;101662.63;;;-4.71;89.41
42761;BME280;31672;47.638;19.026;2024-01-10T17:37:00;101668.88;;;-4.79;90.03
42761;BME280;31672;47.638;19.026;2024-01-10T17:42:03;101663.09;;;-4.92;90.50
42761;BME280;31672;47.638;19.026;2024-01-10T17:47:07;101656.41;;;-5.02;90.91
42761;BME280;31672;47.638;19.026;2024-01-10T17:52:14;101655.72;;;-5.11;92.34
42761;BME280;31672;47.638;19.026;2024-01-10T17:57:18;101650.66;;;-5.15;92.82
42761;BME280;31672;47.638;19.026;2024-01-10T18:02:23;101644.69;;;-5.20;94.08
42761;BME280;31672;47.638;19.026;2024-01-10T18:07:27;101649.03;;;-5.21;94.55
42761;BME280;31672;47.638;19.026;2024-01-10T18:12:30;101637.97;;;-5.29;94.63
42761;BME280;31672;47.638;19.026;2024-01-10T18:17:34;101642.50;;;-5.39;95.29
42761;BME280;31672;47.638;19.026;2024-01-10T18:22:37;101642.50;;;-5.40;96.85
42761;BME280;31672;47.638;19.026;2024-01-10T18:27:41;101632.00;;;-5.34;98.53
42761;BME280;31672;47.638;19.026;2024-01-10T18:32:44;101631.06;;;-5.30;99.21
42761;BME280;31672;47.638;19.026;2024-01-10T18:37:49;101630.22;;;-5.30;99.35
42761;BME280;31672;47.638;19.026;2024-01-10T18:42:53;101628.69;;;-5.39;99.50
42761;BME280;31672;47.638;19.026;2024-01-10T18:47:56;101629.81;;;-5.52;99.76
42761;BME280;31672;47.638;19.026;2024-01-10T18:53:00;101629.13;;;-5.60;100.00
42761;BME280;31672;47.638;19.026;2024-01-10T18:58:04;101619.75;;;-5.68;100.00
42761;BME280;31672;47.638;19.026;2024-01-10T19:03:08;101610.41;;;-5.76;100.00
42761;BME280;31672;47.638;19.026;2024-01-10T19:08:13;101614.78;;;-5.78;100.00
42761;BME280;31672;47.638;19.026;2024-01-10T19:13:18;101620.00;;;-5.80;100.00
42761;BME280;31672;47.638;19.026;2024-01-10T19:18:22;101613.16;;;-5.84;100.00
42761;BME280;31672;47.638;19.026;2024-01-10T19:23:26;101619.41;;;-5.94;100.00
42761;BME280;31672;47.638;19.026;2024-01-10T19:28:30;101625.63;;;-6.03;100.00
42761;BME280;31672;47.638;19.026;2024-01-10T19:33:34;101617.16;;;-6.12;100.00
42761;BME280;31672;47.638;19.026;2024-01-10T19:38:37;101624.94;;;-6.12;100.00
42761;BME280;31672;47.638;19.026;2024-01-10T19:43:41;101625.03;;;-6.17;100.00
42761;BME280;31672;47.638;19.026;2024-01-10T19:48:45;101636.38;;;-6.26;100.00
42761;BME280;31672;47.638;19.026;2024-01-10T19:53:49;101632.28;;;-6.37;100.00
42761;BME280;31672;47.638;19.026;2024-01-10T19:58:52;101626.38;;;-6.45;100.00
42761;BME280;31672;47.638;19.026;2024-01-10T20:03:57;101619.56;;;-6.51;100.00
42761;BME280;31672;47.638;19.026;2024-01-10T20:09:00;101615.31;;;-6.55;100.00
42761;BME280;31672;47.638;19.026;2024-01-10T20:14:04;101622.34;;;-6.63;100.00
42761;BME280;31672;47.638;19.026;2024-01-10T20:19:07;101625.91;;;-6.70;100.00
42761;BME280;31672;47.638;19.026;2024-01-10T20:24:11;101620.03;;;-6.80;100.00
42761;BME280;31672;47.638;19.026;2024-01-10T20:29:15;101617.53;;;-6.86;100.00
42761;BME280;31672;47.638;19.026;2024-01-10T20:34:19;101614.13;;;-6.90;100.00
42761;BME280;31672;47.638;19.026;2024-01-10T20:39:23;101603.88;;;-6.94;100.00
42761;BME280;31672;47.638;19.026;2024-01-10T20:44:27;101603.03;;;-6.95;100.00
42761;BME280;31672;47.638;19.026;2024-01-10T20:49:31;101606.53;;;-6.99;100.00
42761;BME280;31672;47.638;19.026;2024-01-10T20:54:34;101603.97;;;-7.01;100.00
42761;BME280;31672;47.638;19.026;2024-01-10T20:59:42;101602.28;;;-7.02;100.00
42761;BME280;31672;47.638;19.026;2024-01-10T21:04:46;101593.72;;;-7.07;100.00
42761;BME280;31672;47.638;19.026;2024-01-10T21:09:49;101588.59;;;-7.10;100.00
42761;BME280;31672;47.638;19.026;2024-01-10T21:14:53;101586.97;;;-7.17;100.00
42761;BME280;31672;47.638;19.026;2024-01-10T21:19:59;101599.06;;;-7.19;100.00
42761;BME280;31672;47.638;19.026;2024-01-10T21:25:03;101595.66;;;-7.22;100.00
42761;BME280;31672;47.638;19.026;2024-01-10T21:30:08;101604.22;;;-7.20;100.00
42761;BME280;31672;47.638;19.026;2024-01-10T21:35:11;101600.81;;;-7.22;100.00
42761;BME280;31672;47.638;19.026;2024-01-10T21:40:15;101603.44;;;-7.24;100.00
42761;BME280;31672;47.638;19.026;2024-01-10T21:45:20;101597.41;;;-7.24;100.00
42761;BME280;31672;47.638;19.026;2024-01-10T21:50:25;101587.09;;;-7.24;100.00
42761;BME280;31672;47.638;19.026;2024-01-10T21:55:30;101599.00;;;-7.16;100.00
42761;BME280;31672;47.638;19.026;2024-01-10T22:00:34;101579.25;;;-7.18;100.00
42761;BME280;31672;47.638;19.026;2024-01-10T22:05:38;101576.75;;;-7.24;100.00
42761;BME280;31672;47.638;19.026;2024-01-10T22:10:42;101586.25;;;-7.28;100.00
42761;BME280;31672;47.638;19.026;2024-01-10T22:15:45;101587.25;;;-7.37;100.00
42761;BME280;31672;47.638;19.026;2024-01-10T22:20:49;101585.66;;;-7.47;100.00
42761;BME280;31672;47.638;19.026;2024-01-10T22:25:52;101589.22;;;-7.56;100.00
42761;BME280;31672;47.638;19.026;2024-01-10T22:30:58;101590.16;;;-7.63;100.00
42761;BME280;31672;47.638;19.026;2024-01-10T22:36:02;101591.13;;;-7.71;100.00
42761;BME280;31672;47.638;19.026;2024-01-10T22:41:05;101597.19;;;-7.75;100.00
42761;BME280;31672;47.638;19.026;2024-01-10T22:46:09;101591.22;;;-7.81;100.00
42761;BME280;31672;47.638;19.026;2024-01-10T22:51:12;101594.66;;;-7.80;100.00
42761;BME280;31672;47.638;19.026;2024-01-10T22:56:17;101592.91;;;-7.76;100.00
42761;BME280;31672;47.638;19.026;2024-01-10T23:01:20;101594.56;;;-7.71;100.00
42761;BME280;31672;47.638;19.026;2024-01-10T23:06:24;101586.78;;;-7.66;100.00
42761;BME280;31672;47.638;19.026;2024-01-10T23:11:28;101573.88;;;-7.69;100.00
42761;BME280;31672;47.638;19.026;2024-01-10T23:16:31;101569.53;;;-7.64;100.00
42761;BME280;31672;47.638;19.026;2024-01-10T23:21:36;101566.97;;;-7.66;100.00
42761;BME280;31672;47.638;19.026;2024-01-10T23:26:40;101573.09;;;-7.73;100.00
42761;BME280;31672;47.638;19.026;2024-01-10T23:31:43;101558.53;;;-7.78;100.00
42761;BME280;31672;47.638;19.026;2024-01-10T23:36:47;101567.19;;;-7.83;100.00
42761;BME280;31672;47.638;19.026;2024-01-10T23:41:50;101557.75;;;-7.85;100.00
42761;BME280;31672;47.638;19.026;2024-01-10T23:46:54;101539.75;;;-7.90;100.00
42761;BME280;31672;47.638;19.026;2024-01-10T23:51:58;101541.41;;;-7.87;100.00
42761;BME280;31672;47.638;19.026;2024-01-10T23:57:01;101533.69;;;-7.87;100.00
